Time;durP1;ratioP1;P1;durP2;ratioP2;P2;SDS_P1;SDS_P2;PMS_P1;PMS_P2;Temp;Humidity;BMP_temperature;BMP_pressure;BME280_temperature;BME280_humidity;BME280_pressure;Samples;Min_cycle;Max_cycle;Signal;HPM_P1;HPM_P2
2022/01/12 00:01:59;;;;;;;0.20;0.20;;;;;;;0.92;100.00;102729.31;5029811;28;20658;-81
2022/01/12 00:04:27;;;;;;;0.20;0.20;;;;;;;0.89;100.00;102724.28;5020517;28;20053;-80
2022/01/12 00:07:00;;;;;;;0.20;0.20;;;;;;;0.87;100.00;102722.78;5024329;28;20053;-80
2022/01/12 00:09:34;;;;;;;0.20;0.20;;;;;;;0.90;100.00;102714.38;5021751;28;20041;-80
2022/01/12 00:12:08;;;;;;;0.10;0.10;;;;;;;0.89;100.00;102712.72;5024552;28;20049;-81
2022/01/12 00:14:43;;;;;;;0.20;0.20;;;;;;;0.92;100.00;102715.91;5037089;28;20057;-81
2022/01/12 00:17:16;;;;;;;0.20;0.20;;;;;;;0.96;100.00;102714.56;5022744;28;20045;-81
2022/01/12 00:19:44;;;;;;;0.20;0.20;;;;;;;0.94;100.00;102719.28;5018256;28;20069;-80
2022/01/12 00:22:18;;;;;;;0.20;0.20;;;;;;;0.85;100.00;102721.09;5020895;28;20049;-81
2022/01/12 00:25:12;;;;;;;0.20;0.20;;;;;;;0.85;100.00;102721.09;5036715;28;20050;-80
2022/01/12 00:33:21;;;;;;;0.10;0.10;;;;;;;0.96;100.00;102737.88;5022716;28;20058;-80
2022/01/12 00:35:57;;;;;;;0.20;0.20;;;;;;;0.95;100.00;102738.88;5026738;28;20045;-81
2022/01/12 00:38:30;;;;;;;0.10;0.10;;;;;;;1.00;100.00;102749.94;5027033;28;20049;-80
2022/01/12 00:41:00;;;;;;;0.20;0.20;;;;;;;1.03;100.00;102757.66;5024454;28;20057;-80
2022/01/12 00:43:30;;;;;;;0.20;0.20;;;;;;;1.06;100.00;102756.50;5027512;28;20053;-80
2022/01/12 00:46:00;;;;;;;0.17;0.17;;;;;;;1.00;100.00;102761.50;5021982;28;20507;-80
2022/01/12 00:48:36;;;;;;;0.20;0.20;;;;;;;0.95;100.00;102755.81;5024824;28;20053;-81
2022/01/12 00:51:11;;;;;;;0.20;0.20;;;;;;;0.93;100.00;102746.25;5025793;28;20052;-80
2022/01/12 00:53:44;;;;;;;0.20;0.20;;;;;;;1.04;100.00;102755.81;5024630;28;20053;-81
2022/01/12 00:56:13;;;;;;;0.20;0.20;;;;;;;1.00;100.00;102742.72;5024465;28;20054;-80
2022/01/12 00:58:46;;;;;;;0.15;0.15;;;;;;;0.95;100.00;102749.59;5026043;28;20753;-80
2022/01/12 01:01:22;;;;;;;0.20;0.20;;;;;;;0.94;100.00;102739.88;5025949;28;20053;-81
2022/01/12 01:03:56;;;;;;;0.20;0.20;;;;;;;1.05;100.00;102746.75;5020741;28;20061;-80
2022/01/12 01:06:25;;;;;;;0.20;0.20;;;;;;;1.01;100.00;102747.09;5025027;28;20445;-81
2022/01/12 01:08:59;;;;;;;0.20;0.20;;;;;;;1.05;100.00;102755.66;5022408;28;20042;-81
2022/01/12 01:11:31;;;;;;;0.20;0.20;;;;;;;1.05;100.00;102757.50;5020407;28;20509;-81
2022/01/12 01:14:14;;;;;;;0.28;0.28;;;;;;;1.05;100.00;102760.16;5024345;28;20041;-80
2022/01/12 01:17:04;;;;;;;0.22;0.22;;;;;;;1.05;100.00;102765.53;5023116;28;20064;-80
2022/01/12 01:25:31;;;;;;;0.20;0.20;;;;;;;1.02;100.00;102754.16;5012860;28;20112;-81
2022/01/12 01:28:06;;;;;;;0.20;0.20;;;;;;;1.05;100.00;102760.16;5022866;28;20706;-80
2022/01/12 01:30:41;;;;;;;0.20;0.20;;;;;;;1.09;100.00;102765.06;5015437;28;20061;-81
2022/01/12 01:33:17;;;;;;;0.10;0.10;;;;;;;1.14;100.00;102761.88;5026841;28;20036;-80
2022/01/12 01:35:53;;;;;;;0.20;0.20;;;;;;;1.17;100.00;102767.75;5017108;28;20088;-81
2022/01/12 01:38:28;;;;;;;0.20;0.20;;;;;;;1.18;100.00;102760.53;5028390;28;20050;-80
2022/01/12 01:40:56;;;;;;;0.20;0.20;;;;;;;1.14;100.00;102762.69;5032487;28;20441;-80
2022/01/12 01:43:40;;;;;;;0.10;0.10;;;;;;;1.09;100.00;102759.69;5028121;28;20061;-80
2022/01/12 01:54:47;;;;;;;0.20;0.20;;;;;;;1.23;100.00;102755.50;5032680;28;20052;-81
2022/01/12 01:57:20;;;;;;;0.20;0.20;;;;;;;1.25;100.00;102750.81;5028610;28;20391;-80
2022/01/12 01:59:53;;;;;;;0.20;0.20;;;;;;;1.32;100.00;102759.03;5030513;28;20049;-80
2022/01/12 02:02:27;;;;;;;0.20;0.20;;;;;;;1.36;100.00;102769.25;5025368;28;20394;-80
2022/01/12 02:05:01;;;;;;;0.20;0.20;;;;;;;1.39;100.00;102760.03;5028420;28;20049;-82
2022/01/12 02:07:35;;;;;;;0.20;0.20;;;;;;;1.43;100.00;102766.75;5031181;28;20044;-79
2022/01/12 02:10:09;;;;;;;0.20;0.20;;;;;;;1.47;100.00;102765.41;5029373;28;20417;-80
2022/01/12 02:12:46;;;;;;;0.20;0.20;;;;;;;1.51;100.00;102773.97;5028293;28;20042;-80
2022/01/12 02:15:18;;;;;;;0.20;0.20;;;;;;;1.60;100.00;102777.47;5026186;28;20046;-81
2022/01/12 02:18:03;;;;;;;0.20;0.20;;;;;;;1.52;100.00;102784.53;5023110;28;20061;-80
2022/01/12 02:35:32;;;;;;;0.17;0.17;;;;;;;1.48;100.00;102796.59;5027070;28;20061;-80
2022/01/12 02:40:57;;;;;;;0.20;0.20;;;;;;;1.47;100.00;102804.81;5022875;28;20064;-80
2022/01/12 02:50:34;;;;;;;0.20;0.20;;;;;;;1.41;100.00;102797.44;5023146;28;20132;-80
2022/01/12 02:55:01;;;;;;;0.20;0.20;;;;;;;1.42;100.00;102785.69;5028432;28;20045;-80
2022/01/12 02:57:34;;;;;;;0.20;0.20;;;;;;;1.39;100.00;102791.41;5026356;28;20052;-80
2022/01/12 03:00:06;;;;;;;0.30;0.30;;;;;;;1.39;100.00;102794.91;5025752;28;20057;-81
2022/01/12 03:02:42;;;;;;;0.20;0.20;;;;;;;1.32;100.00;102794.72;5027584;28;20695;-80
2022/01/12 03:05:32;;;;;;;0.30;0.30;;;;;;;1.37;100.00;102802.31;5026678;28;20399;-80
2022/01/12 03:08:13;;;;;;;0.20;0.20;;;;;;;1.42;100.00;102807.16;5026228;28;20120;-80
2022/01/12 03:10:47;;;;;;;0.30;0.30;;;;;;;1.39;100.00;102797.59;5024228;28;20064;-80
2022/01/12 03:13:21;;;;;;;0.20;0.20;;;;;;;1.43;100.00;102777.47;5026752;28;20061;-80
2022/01/12 03:15:56;;;;;;;0.20;0.20;;;;;;;1.43;100.00;102793.56;5041266;28;20046;-81
2022/01/12 03:18:30;;;;;;;0.20;0.20;;;;;;;1.40;100.00;102791.22;5026244;28;20060;-80
2022/01/12 03:21:03;;;;;;;0.15;0.15;;;;;;;1.34;100.00;102776.66;5027924;28;20050;-80
2022/01/12 03:23:37;;;;;;;0.20;0.20;;;;;;;1.35;100.00;102799.78;5043581;28;20052;-80
2022/01/12 03:26:12;;;;;;;0.20;0.20;;;;;;;1.31;100.00;102787.72;5027258;28;20064;-80
2022/01/12 03:28:52;;;;;;;0.20;0.20;;;;;;;1.34;100.00;102779.31;5023333;28;20049;-80
2022/01/12 03:31:23;;;;;;;0.20;0.20;;;;;;;1.43;100.00;102782.84;5026547;28;20064;-80
2022/01/12 03:33:57;;;;;;;0.30;0.30;;;;;;;1.34;100.00;102787.38;5037225;28;20049;-80
2022/01/12 03:36:42;;;;;;;0.20;0.20;;;;;;;1.32;100.00;102791.22;5025079;28;20080;-80
2022/01/12 03:39:16;;;;;;;0.20;0.20;;;;;;;1.33;100.00;102790.22;5025369;28;20061;-80
2022/01/12 03:41:46;;;;;;;0.20;0.20;;;;;;;1.37;100.00;102802.31;5036002;28;20053;-81
2022/01/12 03:44:21;;;;;;;0.20;0.20;;;;;;;1.35;100.00;102798.94;5023978;28;20199;-80
2022/01/12 03:46:55;;;;;;;0.10;0.10;;;;;;;1.39;100.00;102796.78;5026540;28;20057;-80
2022/01/12 03:49:28;;;;;;;0.20;0.20;;;;;;;1.44;100.00;102799.81;5024906;28;20053;-81
2022/01/12 03:51:56;;;;;;;0.30;0.30;;;;;;;1.35;100.00;102802.47;5027452;28;20052;-80
2022/01/12 03:54:30;;;;;;;0.20;0.20;;;;;;;1.39;100.00;102805.66;5025220;28;20060;-80
2022/01/12 03:57:05;;;;;;;0.28;0.28;;;;;;;1.38;100.00;102787.03;5020747;28;20049;-80
2022/01/12 03:59:34;;;;;;;0.20;0.20;;;;;;;1.36;100.00;102784.53;5022184;28;20048;-81
2022/01/12 04:02:07;;;;;;;0.20;0.20;;;;;;;1.29;100.00;102778.16;5021256;28;20406;-80
2022/01/12 04:05:04;;;;;;;0.25;0.25;;;;;;;1.53;100.00;102785.34;5027466;28;20056;-81
2022/01/12 04:10:24;;;;;;;0.20;0.20;;;;;;;1.38;100.00;102762.88;5028379;28;20041;-80
2022/01/12 04:13:00;;;;;;;0.20;0.20;;;;;;;1.35;100.00;102759.56;5025301;28;20049;-80
2022/01/12 04:15:33;;;;;;;0.10;0.10;;;;;;;1.29;100.00;102765.56;5026894;28;20052;-79
2022/01/12 04:18:07;;;;;;;0.20;0.20;;;;;;;1.32;100.00;102767.91;5022309;28;20053;-81
2022/01/12 04:20:45;;;;;;;0.20;0.20;;;;;;;1.32;100.00;102770.59;5023584;28;20042;-81
2022/01/12 04:23:21;;;;;;;0.30;0.30;;;;;;;1.36;100.00;102777.31;5026139;28;20044;-81
2022/01/12 04:25:57;;;;;;;0.20;0.20;;;;;;;1.32;100.00;102784.00;5020326;28;20053;-80
2022/01/12 04:28:32;;;;;;;0.20;0.20;;;;;;;1.50;100.00;102777.66;5023598;28;20045;-80
2022/01/12 04:31:06;;;;;;;0.13;0.13;;;;;;;1.42;100.00;102788.38;5022225;28;20049;-80
2022/01/12 04:33:35;;;;;;;0.22;0.22;;;;;;;1.41;100.00;102784.00;5025500;28;20057;-80
2022/01/12 04:36:10;;;;;;;0.20;0.20;;;;;;;1.39;100.00;102786.88;5014664;28;20133;-80
2022/01/12 04:38:45;;;;;;;0.20;0.20;;;;;;;1.39;100.00;102792.22;5024760;28;20037;-80
2022/01/12 04:41:18;;;;;;;0.20;0.20;;;;;;;1.39;100.00;102788.72;5023083;28;20057;-80
2022/01/12 04:43:56;;;;;;;0.20;0.20;;;;;;;1.43;100.00;102793.56;5021180;28;20049;-80
2022/01/12 04:46:37;;;;;;;;;;;;;;;1.44;100.00;102789.06;5028150;28;20049;-80
2022/01/12 04:49:36;;;;;;;0.20;0.20;;;;;;;1.43;100.00;102793.56;5024202;28;19925;-80
2022/01/12 04:52:05;;;;;;;0.13;0.13;;;;;;;1.39;100.00;102786.03;5023261;28;20057;-80
2022/01/12 04:54:39;;;;;;;0.20;0.20;;;;;;;1.46;100.00;102795.91;5024922;28;20042;-81
2022/01/12 04:57:13;;;;;;;0.20;0.20;;;;;;;1.46;100.00;102795.09;5024734;28;20053;-80
2022/01/12 04:59:59;;;;;;;0.20;0.20;;;;;;;1.43;100.00;102784.69;5026076;28;20049;-80
2022/01/12 05:08:20;;;;;;;0.20;0.20;;;;;;;1.45;100.00;102788.03;5016414;28;20052;-80
2022/01/12 05:13:41;;;;;;;0.20;0.20;;;;;;;1.41;100.00;102790.25;5029009;28;20053;-80
2022/01/12 05:16:11;;;;;;;0.20;0.20;;;;;;;1.44;100.00;102778.34;5040815;28;20056;-81
2022/01/12 05:18:47;;;;;;;0.20;0.20;;;;;;;1.50;100.00;102794.59;5031277;28;20049;-81
2022/01/12 05:21:22;;;;;;;0.20;0.20;;;;;;;1.63;100.00;102795.94;5026703;28;20057;-80
2022/01/12 05:23:57;;;;;;;0.20;0.20;;;;;;;1.56;100.00;102790.41;5031138;28;20041;-80
2022/01/12 05:26:25;;;;;;;0.10;0.10;;;;;;;1.55;100.00;102793.25;5048459;28;20054;-81
2022/01/12 05:28:53;;;;;;;0.20;0.20;;;;;;;1.59;100.00;102786.53;5033956;28;20052;-81
2022/01/12 05:31:28;;;;;;;0.10;0.10;;;;;;;1.56;100.00;102785.06;5025278;28;20406;-81
2022/01/12 05:34:02;;;;;;;0.20;0.20;;;;;;;1.51;100.00;102782.03;5027914;28;20045;-80
2022/01/12 05:36:35;;;;;;;0.20;0.20;;;;;;;1.60;100.00;102799.81;5030690;28;20052;-80
2022/01/12 05:39:09;;;;;;;0.20;0.20;;;;;;;1.55;100.00;102790.56;5020271;28;20041;-80
2022/01/12 05:41:42;;;;;;;0.20;0.20;;;;;;;1.52;100.00;102795.28;5032069;28;20049;-80
2022/01/12 05:44:15;;;;;;;0.30;0.30;;;;;;;1.63;100.00;102798.63;5031220;28;20064;-80
2022/01/12 05:46:50;;;;;;;0.22;0.22;;;;;;;1.57;100.00;102797.44;5025249;28;20042;-80
2022/01/12 05:49:36;;;;;;;0.20;0.20;;;;;;;1.58;100.00;102807.19;5044765;28;20507;-81
2022/01/12 05:52:11;;;;;;;;;;;;;;;1.56;100.00;102811.03;5024628;28;20050;-81
2022/01/12 05:54:44;;;;;;;0.30;0.30;;;;;;;1.57;100.00;102804.66;5029008;28;19928;-83
2022/01/12 05:57:17;;;;;;;0.20;0.20;;;;;;;1.59;100.00;102814.22;5031310;28;20052;-81
2022/01/12 05:59:46;;;;;;;0.20;0.20;;;;;;;1.59;100.00;102803.50;5017685;28;20533;-79
2022/01/12 06:02:16;;;;;;;0.20;0.20;;;;;;;1.57;100.00;102799.28;5026732;28;20041;-81
2022/01/12 06:04:50;;;;;;;0.20;0.20;;;;;;;1.64;100.00;102794.94;5029414;28;20046;-81
2022/01/12 06:07:23;;;;;;;0.20;0.20;;;;;;;1.63;100.00;102802.16;5025886;28;20037;-81
2022/01/12 06:09:52;;;;;;;0.20;0.20;;;;;;;1.69;100.00;102796.09;5029054;28;20049;-81
2022/01/12 06:12:20;;;;;;;0.20;0.20;;;;;;;1.64;100.00;102802.97;5032362;28;20067;-81
2022/01/12 06:14:53;;;;;;;0.20;0.20;;;;;;;1.68;100.00;102815.06;5027852;28;20498;-82
2022/01/12 06:17:28;;;;;;;0.20;0.20;;;;;;;1.61;100.00;102801.47;5021452;28;20061;-81
2022/01/12 06:20:01;;;;;;;0.20;0.20;;;;;;;1.60;100.00;102818.59;5027816;28;20042;-81
2022/01/12 06:22:45;;;;;;;0.20;0.20;;;;;;;1.55;100.00;102818.25;5023734;28;20486;-81
2022/01/12 06:25:18;;;;;;;0.30;0.30;;;;;;;1.65;100.00;102828.81;5024913;28;20049;-81
2022/01/12 06:27:54;;;;;;;0.20;0.20;;;;;;;1.66;100.00;102828.66;5025505;28;20273;-81
2022/01/12 06:33:20;;;;;;;0.20;0.20;;;;;;;1.65;100.00;102848.44;5024096;28;20071;-82
2022/01/12 06:35:53;;;;;;;0.20;0.20;;;;;;;1.72;100.00;102840.56;5029670;28;20516;-81
2022/01/12 06:38:27;;;;;;;0.30;0.30;;;;;;;1.76;100.00;102849.97;5022054;28;20061;-81
2022/01/12 06:41:01;;;;;;;0.20;0.20;;;;;;;1.76;100.00;102849.13;5026000;28;20049;-81
2022/01/12 06:43:35;;;;;;;0.20;0.20;;;;;;;1.73;100.00;102854.81;5033851;28;20041;-81
2022/01/12 06:46:04;;;;;;;0.20;0.20;;;;;;;1.69;100.00;102862.38;5028002;28;20046;-81
2022/01/12 06:48:39;;;;;;;0.30;0.30;;;;;;;1.70;100.00;102856.00;5027627;28;20437;-81
2022/01/12 06:51:12;;;;;;;0.20;0.20;;;;;;;1.72;100.00;102867.41;5028419;28;20532;-81
2022/01/12 06:53:46;;;;;;;0.20;0.20;;;;;;;1.69;100.00;102868.56;5024594;28;20045;-81
2022/01/12 06:56:17;;;;;;;0.20;0.20;;;;;;;1.70;100.00;102872.13;5027864;28;20056;-80
2022/01/12 06:58:51;;;;;;;0.28;0.28;;;;;;;1.74;100.00;102875.28;5025792;28;20049;-81
2022/01/12 07:01:24;;;;;;;0.20;0.20;;;;;;;1.76;100.00;102882.19;5028351;28;20053;-81
2022/01/12 07:03:59;;;;;;;0.20;0.20;;;;;;;1.76;100.00;102875.97;5025659;28;20049;-80
2022/01/12 07:06:34;;;;;;;0.30;0.30;;;;;;;1.78;100.00;102876.63;5027326;28;20054;-81
2022/01/12 07:09:07;;;;;;;0.30;0.30;;;;;;;1.85;100.00;102878.50;5027758;28;20053;-81
2022/01/12 07:11:55;;;;;;;0.20;0.20;;;;;;;1.76;100.00;102884.84;5027362;28;20398;-81
2022/01/12 07:14:32;;;;;;;0.22;0.22;;;;;;;1.76;100.00;102882.19;5025859;28;20057;-81
2022/01/12 07:17:08;;;;;;;0.30;0.30;;;;;;;1.81;100.00;102892.41;5043446;28;20056;-81
2022/01/12 07:19:37;;;;;;;0.30;0.30;;;;;;;1.82;100.00;102886.03;5022669;28;20057;-81
2022/01/12 07:22:06;;;;;;;0.20;0.20;;;;;;;1.86;100.00;102892.75;5027959;28;20060;-81
2022/01/12 07:24:39;;;;;;;0.30;0.30;;;;;;;1.84;100.00;102887.56;5031141;28;20048;-81
2022/01/12 07:27:07;;;;;;;0.30;0.30;;;;;;;1.84;100.00;102894.78;5030689;28;20049;-81
2022/01/12 07:29:40;;;;;;;0.20;0.20;;;;;;;1.84;100.00;102906.34;5029719;28;20041;-81
2022/01/12 07:32:14;;;;;;;0.20;0.20;;;;;;;1.94;100.00;102913.41;5025039;28;20057;-82
2022/01/12 07:34:50;;;;;;;0.20;0.20;;;;;;;1.89;100.00;102903.16;5024708;28;20057;-83
2022/01/12 07:37:23;;;;;;;0.28;0.28;;;;;;;1.92;100.00;102907.34;5027031;28;20058;-81
2022/01/12 07:39:51;;;;;;;0.30;0.30;;;;;;;1.92;100.00;102904.66;5028323;28;20056;-82
2022/01/12 07:42:20;;;;;;;0.20;0.20;;;;;;;1.89;100.00;102899.63;5025956;28;20050;-82
2022/01/12 07:44:59;;;;;;;0.20;0.20;;;;;;;1.90;100.00;102912.88;5025706;28;20068;-81
2022/01/12 07:47:33;;;;;;;0.25;0.25;;;;;;;1.84;100.00;102922.44;5023088;28;20050;-82
2022/01/12 07:50:09;;;;;;;0.20;0.20;;;;;;;1.86;100.00;102912.41;5031064;28;20048;-82
2022/01/12 07:52:42;;;;;;;0.20;0.20;;;;;;;1.92;100.00;102913.59;5027794;28;20045;-80
2022/01/12 07:55:16;;;;;;;0.20;0.20;;;;;;;1.91;100.00;102919.94;5026147;28;20049;-81
2022/01/12 07:57:49;;;;;;;0.20;0.20;;;;;;;1.91;100.00;102919.94;5016975;28;20050;-81
2022/01/12 08:00:22;;;;;;;0.22;0.22;;;;;;;1.86;100.00;102925.81;5027271;28;20512;-82
2022/01/12 08:02:51;;;;;;;0.22;0.22;;;;;;;1.81;100.00;102919.25;5022940;28;20056;-81
2022/01/12 08:05:25;;;;;;;0.20;0.20;;;;;;;1.94;100.00;102927.66;5024686;28;20406;-83
2022/01/12 08:07:59;;;;;;;0.20;0.20;;;;;;;1.93;100.00;102925.16;5028257;28;20064;-83
2022/01/12 08:10:32;;;;;;;0.20;0.20;;;;;;;1.76;100.00;102914.38;5019896;28;20050;-81
2022/01/12 08:13:05;;;;;;;0.20;0.20;;;;;;;1.78;100.00;102923.13;5026238;28;20037;-80
2022/01/12 08:15:38;;;;;;;0.20;0.20;;;;;;;1.93;100.00;102928.66;5037629;28;20057;-80
2022/01/12 08:18:07;;;;;;;0.20;0.20;;;;;;;1.95;100.00;102915.91;5023182;28;20053;-82
2022/01/12 08:20:42;;;;;;;0.30;0.30;;;;;;;1.97;100.00;102927.31;5021869;28;20702;-80
2022/01/12 08:23:15;;;;;;;0.20;0.20;;;;;;;1.96;100.00;102916.75;5025795;28;20030;-82
2022/01/12 08:25:49;;;;;;;0.20;0.20;;;;;;;1.94;100.00;102916.91;5023121;28;20058;-81
2022/01/12 08:28:22;;;;;;;0.20;0.20;;;;;;;1.89;100.00;102918.44;5017886;28;20064;-81
2022/01/12 08:30:55;;;;;;;0.20;0.20;;;;;;;1.91;100.00;102927.19;5021797;28;20045;-80
2022/01/12 08:33:29;;;;;;;0.20;0.20;;;;;;;1.95;100.00;102933.91;5023244;28;20607;-82
2022/01/12 08:36:04;;;;;;;0.20;0.20;;;;;;;1.92;100.00;102942.25;5022345;28;20057;-81
2022/01/12 08:38:37;;;;;;;0.20;0.20;;;;;;;1.83;100.00;102933.38;5024012;28;20520;-80
2022/01/12 08:41:05;;;;;;;0.17;0.17;;;;;;;1.92;100.00;102958.38;5021571;28;20056;-82
2022/01/12 08:43:39;;;;;;;0.20;0.20;;;;;;;1.94;100.00;102967.94;5024495;28;20045;-81
2022/01/12 08:46:12;;;;;;;0.20;0.20;;;;;;;1.89;100.00;102956.03;5022008;28;20049;-81
2022/01/12 08:48:45;;;;;;;0.20;0.20;;;;;;;1.82;100.00;102958.53;5019009;28;20049;-81
2022/01/12 08:51:19;;;;;;;0.20;0.20;;;;;;;1.83;100.00;102954.84;5035042;28;20057;-83
2022/01/12 08:53:53;;;;;;;0.20;0.20;;;;;;;1.84;100.00;102960.03;5018326;28;20045;-83
2022/01/12 08:56:26;;;;;;;0.20;0.20;;;;;;;1.81;100.00;102967.56;5020181;28;20064;-82
2022/01/12 08:58:59;;;;;;;0.20;0.20;;;;;;;1.81;100.00;102984.53;5012049;28;20058;-82
2022/01/12 09:01:28;;;;;;;0.10;0.10;;;;;;;1.78;100.00;102979.50;5013875;28;20501;-82
2022/01/12 09:04:01;;;;;;;0.20;0.20;;;;;;;1.78;100.00;102974.16;5009286;28;20061;-82
2022/01/12 09:06:36;;;;;;;0.20;0.20;;;;;;;1.84;100.00;102972.63;5013142;28;20061;-82
2022/01/12 09:09:04;;;;;;;0.15;0.15;;;;;;;1.82;100.00;102978.19;5009493;28;20049;-82
2022/01/12 09:11:38;;;;;;;0.20;0.20;;;;;;;1.81;100.00;102965.75;5008211;28;20069;-83
2022/01/12 09:14:06;;;;;;;0.20;0.20;;;;;;;1.89;100.00;102969.44;5011803;28;20057;-81
2022/01/12 09:16:35;;;;;;;0.20;0.20;;;;;;;1.86;100.00;102974.16;5014870;28;20050;-81
2022/01/12 09:19:09;;;;;;;0.25;0.25;;;;;;;1.88;100.00;102974.00;5014126;28;20037;-82
2022/01/12 09:21:39;;;;;;;0.20;0.20;;;;;;;1.90;100.00;102974.66;5011517;28;20505;-83
2022/01/12 09:24:12;;;;;;;0.20;0.20;;;;;;;1.93;100.00;102966.25;5010626;28;21033;-82
2022/01/12 09:26:41;;;;;;;0.20;0.20;;;;;;;1.90;100.00;102968.44;5011275;28;20679;-82
2022/01/12 09:29:09;;;;;;;0.30;0.30;;;;;;;2.00;100.00;102986.09;5010218;28;20068;-82
2022/01/12 09:31:37;;;;;;;0.25;0.25;;;;;;;2.07;100.00;102988.09;5016211;28;20064;-82
2022/01/12 09:34:06;;;;;;;0.20;0.20;;;;;;;2.11;100.00;102992.13;5011892;28;20502;-81
2022/01/12 09:36:41;;;;;;;0.30;0.30;;;;;;;2.16;100.00;102992.50;5010709;28;20041;-83
2022/01/12 09:39:10;;;;;;;0.20;0.20;;;;;;;2.20;100.00;103002.72;5009568;28;20061;-81
2022/01/12 09:41:43;;;;;;;0.20;0.20;;;;;;;2.17;100.00;102994.19;5012195;28;20065;-82
2022/01/12 09:44:12;;;;;;;0.20;0.20;;;;;;;2.31;100.00;103015.00;5011757;28;20053;-82
2022/01/12 09:46:40;;;;;;;0.20;0.20;;;;;;;2.30;100.00;103007.09;5029465;28;20067;-83
2022/01/12 09:49:14;;;;;;;0.20;0.20;;;;;;;2.35;100.00;103010.97;5010432;28;20053;-82
2022/01/12 09:51:51;;;;;;;0.30;0.30;;;;;;;2.32;100.00;103015.81;5011331;28;20076;-82
2022/01/12 09:54:19;;;;;;;0.30;0.20;;;;;;;2.37;100.00;103011.63;5015336;28;20060;-82
2022/01/12 09:56:53;;;;;;;0.20;0.20;;;;;;;2.43;100.00;103012.84;5011192;28;20049;-82
2022/01/12 09:59:27;;;;;;;0.20;0.20;;;;;;;2.52;100.00;103017.19;5010075;28;20533;-82
2022/01/12 10:02:01;;;;;;;0.30;0.30;;;;;;;2.45;100.00;103013.50;5013862;28;20045;-82
2022/01/12 10:04:34;;;;;;;0.20;0.20;;;;;;;2.48;100.00;103031.97;5018510;28;20092;-82
2022/01/12 10:07:09;;;;;;;0.20;0.20;;;;;;;2.64;100.00;103036.50;5013332;28;20048;-82
2022/01/12 10:09:44;;;;;;;0.20;0.20;;;;;;;2.71;100.00;103037.50;5013778;28;20057;-83
2022/01/12 10:12:14;;;;;;;0.20;0.20;;;;;;;2.71;100.00;103034.00;5011824;28;20057;-82
2022/01/12 10:14:58;;;;;;;0.20;0.20;;;;;;;2.75;100.00;103029.97;5018150;28;20088;-82
2022/01/12 10:17:34;;;;;;;0.20;0.20;;;;;;;2.71;100.00;103024.06;5019117;28;20060;-83
2022/01/12 10:20:10;;;;;;;0.20;0.20;;;;;;;2.79;100.00;103020.53;5016766;28;20057;-82
2022/01/12 10:22:58;;;;;;;0.30;0.30;;;;;;;2.79;100.00;103025.91;5016726;28;20079;-83
2022/01/12 10:25:28;;;;;;;0.20;0.20;;;;;;;2.76;100.00;103028.94;5014955;28;20049;-82
2022/01/12 10:28:12;;;;;;;0.20;0.20;;;;;;;2.81;100.00;103025.75;5013332;28;20053;-82
2022/01/12 10:30:41;;;;;;;0.20;0.20;;;;;;;2.91;100.00;103017.50;5014535;28;20056;-82
2022/01/12 10:33:11;;;;;;;0.20;0.20;;;;;;;3.12;100.00;103023.19;5016309;28;20931;-82
2022/01/12 10:35:41;;;;;;;0.20;0.20;;;;;;;3.18;100.00;103021.66;5018469;28;20050;-82
2022/01/12 10:38:17;;;;;;;0.30;0.30;;;;;;;3.01;100.00;102994.78;5009119;28;20840;-82
2022/01/12 10:40:52;;;;;;;0.22;0.22;;;;;;;3.26;100.00;103018.94;5012255;28;20512;-82
2022/01/12 10:43:31;;;;;;;0.20;0.20;;;;;;;3.35;100.00;103025.13;5013622;28;20068;-82
2022/01/12 10:46:01;;;;;;;0.20;0.20;;;;;;;3.42;100.00;103027.94;5008556;28;20062;-82
2022/01/12 10:48:43;;;;;;;0.20;0.20;;;;;;;3.31;100.00;103040.75;5011334;28;20057;-82
2022/01/12 10:51:19;;;;;;;0.20;0.20;;;;;;;3.39;100.00;103050.66;5032443;28;20857;-81
2022/01/12 10:53:50;;;;;;;0.17;0.17;;;;;;;3.19;100.00;103044.81;5014788;28;20057;-82
2022/01/12 10:56:25;;;;;;;0.20;0.20;;;;;;;3.25;100.00;103049.53;5012101;28;20049;-82
2022/01/12 10:58:59;;;;;;;0.20;0.20;;;;;;;3.19;100.00;103053.75;5013654;28;20064;-81
2022/01/12 11:01:32;;;;;;;0.20;0.20;;;;;;;3.13;100.00;103067.06;5013987;28;20061;-82
2022/01/12 11:04:06;;;;;;;0.20;0.20;;;;;;;3.10;100.00;103060.16;5029325;28;20045;-81
2022/01/12 11:06:40;;;;;;;0.20;0.20;;;;;;;3.10;100.00;103057.47;5017408;28;20045;-82
2022/01/12 11:09:09;;;;;;;0.20;0.20;;;;;;;3.14;100.00;103055.28;5016018;28;20065;-82
2022/01/12 11:11:42;;;;;;;0.13;0.13;;;;;;;3.08;100.00;103043.38;5011583;28;20064;-82
2022/01/12 11:14:16;;;;;;;0.20;0.20;;;;;;;3.19;100.00;103032.22;5011074;28;20056;-81
2022/01/12 11:16:44;;;;;;;0.20;0.20;;;;;;;3.20;100.00;103027.69;5011181;28;20053;-81
2022/01/12 11:19:13;;;;;;;0.30;0.30;;;;;;;3.28;100.00;103016.88;5012564;28;20518;-82
2022/01/12 11:21:57;;;;;;;0.20;0.20;;;;;;;3.28;100.00;103010.69;5012391;28;20052;-82
2022/01/12 11:24:34;;;;;;;0.20;0.20;;;;;;;3.31;100.00;103011.16;5010351;28;20068;-80
2022/01/12 11:27:08;;;;;;;0.20;0.20;;;;;;;3.29;100.00;103009.69;5010970;28;20053;-81
2022/01/12 11:29:41;;;;;;;0.20;0.20;;;;;;;3.53;100.00;103019.50;5015227;28;20061;-83
2022/01/12 11:32:23;;;;;;;0.20;0.20;;;;;;;3.31;100.00;103011.16;5008752;28;20049;-81
2022/01/12 11:35:00;;;;;;;0.13;0.13;;;;;;;3.46;100.00;103015.81;5010369;28;20675;-81
2022/01/12 11:37:29;;;;;;;0.20;0.20;;;;;;;3.43;100.00;103016.19;5012224;28;21520;-82
2022/01/12 11:40:10;;;;;;;0.20;0.20;;;;;;;3.48;100.00;103022.72;5013120;28;20055;-82
2022/01/12 11:42:43;;;;;;;0.20;0.20;;;;;;;3.48;100.00;103019.16;5012890;28;20054;-82
2022/01/12 11:45:20;;;;;;;0.20;0.20;;;;;;;3.41;100.00;103005.56;5007099;28;20053;-81
2022/01/12 11:47:53;;;;;;;0.17;0.17;;;;;;;3.53;100.00;103004.16;5011889;28;20057;-80
2022/01/12 11:50:27;;;;;;;0.30;0.30;;;;;;;3.60;100.00;103000.78;5011455;28;20433;-81
2022/01/12 11:53:01;;;;;;;0.20;0.20;;;;;;;3.71;100.00;103006.59;5009071;28;20065;-81
2022/01/12 11:55:37;;;;;;;0.20;0.20;;;;;;;3.55;100.00;103007.53;5013366;28;20052;-81
2022/01/12 11:58:17;;;;;;;0.20;0.20;;;;;;;3.61;100.00;103015.94;5006160;28;20049;-81
2022/01/12 12:00:52;;;;;;;0.20;0.20;;;;;;;3.56;100.00;103013.75;5010223;28;20061;-80
2022/01/12 12:03:26;;;;;;;0.20;0.20;;;;;;;3.42;100.00;103023.41;5010313;28;21582;-81
2022/01/12 12:05:55;;;;;;;0.25;0.25;;;;;;;3.48;100.00;103020.03;5014908;28;20045;-81
2022/01/12 12:08:24;;;;;;;0.20;0.20;;;;;;;3.52;100.00;103023.19;5008472;28;20060;-81
2022/01/12 12:10:59;;;;;;;0.20;0.20;;;;;;;3.54;100.00;103023.88;5009690;28;20061;-82
2022/01/12 12:13:27;;;;;;;0.20;0.20;;;;;;;3.48;100.00;103021.84;5012021;28;20057;-83
2022/01/12 12:15:55;;;;;;;0.10;0.10;;;;;;;3.54;100.00;103018.47;5009503;28;20045;-81
2022/01/12 12:18:29;;;;;;;0.20;0.20;;;;;;;3.55;100.00;103012.91;5005470;28;20524;-81
2022/01/12 12:21:02;;;;;;;0.20;0.20;;;;;;;3.62;100.00;103004.97;5005084;28;20057;-81
2022/01/12 12:23:32;;;;;;;0.13;0.13;;;;;;;3.57;100.00;103021.66;5007349;28;20057;-81
2022/01/12 12:26:08;;;;;;;0.20;0.20;;;;;;;3.59;100.00;103008.03;5011015;28;20045;-81
2022/01/12 12:28:44;;;;;;;0.30;0.30;;;;;;;3.61;100.00;103018.63;5015927;28;20049;-81
2022/01/12 12:31:22;;;;;;;0.20;0.20;;;;;;;3.63;100.00;103020.09;5004905;28;20079;-81
2022/01/12 12:34:00;;;;;;;0.20;0.20;;;;;;;3.66;100.00;103019.78;5008392;28;20091;-81
2022/01/12 12:36:28;;;;;;;0.20;0.20;;;;;;;3.70;100.00;103015.72;5002091;28;20056;-80
2022/01/12 12:39:09;;;;;;;0.20;0.20;;;;;;;3.75;100.00;103016.00;5010486;28;20615;-81
2022/01/12 12:41:46;;;;;;;0.20;0.20;;;;;;;3.75;100.00;103012.47;5009378;28;20054;-82
2022/01/12 12:44:21;;;;;;;;;;;;;;;3.71;100.00;103011.16;5008752;28;20053;-81
2022/01/12 12:47:06;;;;;;;0.30;0.30;;;;;;;3.63;100.00;103020.09;5027834;28;19932;-82
2022/01/12 12:49:51;;;;;;;0.20;0.20;;;;;;;3.60;100.00;103016.94;5010152;28;20049;-81
2022/01/12 12:52:29;;;;;;;0.20;0.20;;;;;;;3.58;100.00;103019.81;5009659;28;20057;-81
2022/01/12 12:55:05;;;;;;;0.20;0.20;;;;;;;3.68;100.00;103019.59;5010955;28;20041;-81
2022/01/12 12:57:48;;;;;;;0.20;0.20;;;;;;;3.84;100.00;103021.34;5009109;28;20663;-81
2022/01/12 13:00:24;;;;;;;0.20;0.20;;;;;;;3.85;100.00;103007.72;5007941;28;20053;-81